sensor_id;sensor_type;location;lat;lon;timestamp;P1;durP1;ratioP1;P2;durP2;ratioP2
47153;SDS011;32907;41.412;2.164;2023-06-22T00:00:43;15.55;;;6.47;;
47153;SDS011;32907;41.412;2.164;2023-06-22T00:03:13;16.42;;;5.93;;
47153;SDS011;32907;41.412;2.164;2023-06-22T00:05:41;14.60;;;6.65;;
47153;SDS011;32907;41.412;2.164;2023-06-22T00:08:12;14.73;;;6.47;;
47153;SDS011;32907;41.412;2.164;2023-06-22T00:10:41;15.52;;;6.97;;
47153;SDS011;32907;41.412;2.164;2023-06-22T00:13:11;14.15;;;6.28;;
47153;SDS011;32907;41.412;2.164;2023-06-22T00:15:41;13.13;;;6.57;;
47153;SDS011;32907;41.412;2.164;2023-06-22T00:18:10;11.05;;;5.38;;
47153;SDS011;32907;41.412;2.164;2023-06-22T00:20:41;12.73;;;5.43;;
47153;SDS011;32907;41.412;2.164;2023-06-22T00:23:13;14.82;;;5.68;;
47153;SDS011;32907;41.412;2.164;2023-06-22T00:25:43;19.05;;;6.47;;
47153;SDS011;32907;41.412;2.164;2023-06-22T00:28:11;12.75;;;5.72;;
47153;SDS011;32907;41.412;2.164;2023-06-22T00:30:40;13.38;;;5.88;;
47153;SDS011;32907;41.412;2.164;2023-06-22T00:33:09;14.10;;;5.85;;
47153;SDS011;32907;41.412;2.164;2023-06-22T00:35:39;10.52;;;5.25;;
47153;SDS011;32907;41.412;2.164;2023-06-22T00:38:10;14.65;;;5.68;;
47153;SDS011;32907;41.412;2.164;2023-06-22T00:40:41;12.40;;;5.85;;
47153;SDS011;32907;41.412;2.164;2023-06-22T00:43:10;11.95;;;5.65;;
47153;SDS011;32907;41.412;2.164;2023-06-22T00:45:39;11.10;;;5.70;;
47153;SDS011;32907;41.412;2.164;2023-06-22T00:48:09;14.13;;;5.90;;
47153;SDS011;32907;41.412;2.164;2023-06-22T00:50:37;13.30;;;6.18;;
47153;SDS011;32907;41.412;2.164;2023-06-22T00:53:06;12.55;;;5.90;;
47153;SDS011;32907;41.412;2.164;2023-06-22T00:55:42;11.20;;;5.57;;
47153;SDS011;32907;41.412;2.164;2023-06-22T00:58:13;17.13;;;6.82;;
47153;SDS011;32907;41.412;2.164;2023-06-22T01:00:41;14.25;;;5.82;;
47153;SDS011;32907;41.412;2.164;2023-06-22T01:03:09;10.75;;;5.50;;
47153;SDS011;32907;41.412;2.164;2023-06-22T01:05:38;14.30;;;6.43;;
47153;SDS011;32907;41.412;2.164;2023-06-22T01:08:29;16.08;;;7.00;;
47153;SDS011;32907;41.412;2.164;2023-06-22T01:16:30;13.82;;;5.60;;
47153;SDS011;32907;41.412;2.164;2023-06-22T01:19:01;12.30;;;5.75;;
47153;SDS011;32907;41.412;2.164;2023-06-22T01:21:53;13.30;;;5.72;;
47153;SDS011;32907;41.412;2.164;2023-06-22T01:25:12;13.02;;;5.97;;
47153;SDS011;32907;41.412;2.164;2023-06-22T01:30:30;11.90;;;5.55;;
47153;SDS011;32907;41.412;2.164;2023-06-22T01:33:03;12.48;;;5.50;;
47153;SDS011;32907;41.412;2.164;2023-06-22T01:35:33;15.00;;;5.93;;
47153;SDS011;32907;41.412;2.164;2023-06-22T01:40:06;15.73;;;6.00;;
47153;SDS011;32907;41.412;2.164;2023-06-22T01:42:36;13.05;;;5.65;;
47153;SDS011;32907;41.412;2.164;2023-06-22T01:45:07;13.35;;;5.53;;
47153;SDS011;32907;41.412;2.164;2023-06-22T01:47:37;12.52;;;5.68;;
47153;SDS011;32907;41.412;2.164;2023-06-22T01:50:09;13.05;;;5.82;;
47153;SDS011;32907;41.412;2.164;2023-06-22T01:52:40;15.93;;;5.70;;
47153;SDS011;32907;41.412;2.164;2023-06-22T01:55:08;10.20;;;5.85;;
47153;SDS011;32907;41.412;2.164;2023-06-22T01:57:38;12.10;;;5.72;;
47153;SDS011;32907;41.412;2.164;2023-06-22T02:00:07;12.80;;;5.20;;
47153;SDS011;32907;41.412;2.164;2023-06-22T02:05:14;14.80;;;6.00;;
47153;SDS011;32907;41.412;2.164;2023-06-22T02:10:36;9.63;;;5.30;;
47153;SDS011;32907;41.412;2.164;2023-06-22T02:13:06;13.38;;;5.75;;
47153;SDS011;32907;41.412;2.164;2023-06-22T02:15:36;10.32;;;5.28;;
47153;SDS011;32907;41.412;2.164;2023-06-22T02:18:07;10.50;;;5.15;;
47153;SDS011;32907;41.412;2.164;2023-06-22T02:20:37;14.40;;;5.35;;
47153;SDS011;32907;41.412;2.164;2023-06-22T02:23:06;10.57;;;5.38;;
47153;SDS011;32907;41.412;2.164;2023-06-22T02:25:36;11.60;;;5.13;;
47153;SDS011;32907;41.412;2.164;2023-06-22T02:28:05;11.70;;;5.22;;
47153;SDS011;32907;41.412;2.164;2023-06-22T02:30:33;10.68;;;4.93;;
47153;SDS011;32907;41.412;2.164;2023-06-22T02:33:01;8.48;;;4.90;;
47153;SDS011;32907;41.412;2.164;2023-06-22T02:35:29;11.27;;;4.78;;
47153;SDS011;32907;41.412;2.164;2023-06-22T02:38:03;12.20;;;5.25;;
47153;SDS011;32907;41.412;2.164;2023-06-22T02:40:33;11.07;;;5.15;;
47153;SDS011;32907;41.412;2.164;2023-06-22T02:43:02;10.77;;;5.50;;
47153;SDS011;32907;41.412;2.164;2023-06-22T02:45:31;13.38;;;6.55;;
47153;SDS011;32907;41.412;2.164;2023-06-22T02:48:00;14.73;;;5.93;;
47153;SDS011;32907;41.412;2.164;2023-06-22T02:50:28;10.27;;;5.40;;
47153;SDS011;32907;41.412;2.164;2023-06-22T02:52:58;11.23;;;5.47;;
47153;SDS011;32907;41.412;2.164;2023-06-22T02:55:28;11.90;;;5.80;;
47153;SDS011;32907;41.412;2.164;2023-06-22T02:57:58;12.35;;;6.13;;
47153;SDS011;32907;41.412;2.164;2023-06-22T03:00:30;11.73;;;5.80;;
47153;SDS011;32907;41.412;2.164;2023-06-22T03:03:00;12.32;;;5.88;;
47153;SDS011;32907;41.412;2.164;2023-06-22T03:05:28;13.98;;;6.13;;
47153;SDS011;32907;41.412;2.164;2023-06-22T03:07:59;12.55;;;5.88;;
47153;SDS011;32907;41.412;2.164;2023-06-22T03:10:32;12.20;;;6.15;;
47153;SDS011;32907;41.412;2.164;2023-06-22T03:13:01;13.05;;;6.07;;
47153;SDS011;32907;41.412;2.164;2023-06-22T03:15:30;15.20;;;6.55;;
47153;SDS011;32907;41.412;2.164;2023-06-22T03:18:01;12.00;;;5.68;;
47153;SDS011;32907;41.412;2.164;2023-06-22T03:20:30;12.10;;;5.63;;
47153;SDS011;32907;41.412;2.164;2023-06-22T03:23:03;12.77;;;5.88;;
47153;SDS011;32907;41.412;2.164;2023-06-22T03:25:32;13.20;;;5.75;;
47153;SDS011;32907;41.412;2.164;2023-06-22T03:28:03;10.50;;;5.57;;
47153;SDS011;32907;41.412;2.164;2023-06-22T03:30:31;10.18;;;5.18;;
47153;SDS011;32907;41.412;2.164;2023-06-22T03:33:00;9.00;;;5.60;;
47153;SDS011;32907;41.412;2.164;2023-06-22T03:35:28;9.30;;;5.80;;
47153;SDS011;32907;41.412;2.164;2023-06-22T03:37:56;11.57;;;4.80;;
47153;SDS011;32907;41.412;2.164;2023-06-22T03:40:24;12.85;;;5.45;;
47153;SDS011;32907;41.412;2.164;2023-06-22T03:42:55;11.32;;;5.47;;
47153;SDS011;32907;41.412;2.164;2023-06-22T03:45:26;11.27;;;5.32;;
47153;SDS011;32907;41.412;2.164;2023-06-22T03:47:54;8.63;;;4.85;;
47153;SDS011;32907;41.412;2.164;2023-06-22T03:50:22;11.85;;;5.15;;
47153;SDS011;32907;41.412;2.164;2023-06-22T03:52:51;8.93;;;4.55;;
47153;SDS011;32907;41.412;2.164;2023-06-22T03:55:21;10.95;;;4.97;;
47153;SDS011;32907;41.412;2.164;2023-06-22T03:57:50;10.52;;;5.15;;
47153;SDS011;32907;41.412;2.164;2023-06-22T04:00:20;9.07;;;4.75;;
47153;SDS011;32907;41.412;2.164;2023-06-22T04:02:50;10.52;;;4.70;;
47153;SDS011;32907;41.412;2.164;2023-06-22T04:05:19;8.48;;;4.38;;
47153;SDS011;32907;41.412;2.164;2023-06-22T04:07:47;12.52;;;4.95;;
47153;SDS011;32907;41.412;2.164;2023-06-22T04:10:15;7.78;;;4.45;;
47153;SDS011;32907;41.412;2.164;2023-06-22T04:12:46;10.20;;;5.00;;
47153;SDS011;32907;41.412;2.164;2023-06-22T04:15:15;8.57;;;5.00;;
47153;SDS011;32907;41.412;2.164;2023-06-22T04:17:43;11.63;;;5.35;;
47153;SDS011;32907;41.412;2.164;2023-06-22T04:20:11;9.00;;;5.15;;
47153;SDS011;32907;41.412;2.164;2023-06-22T04:22:39;10.60;;;4.68;;
47153;SDS011;32907;41.412;2.164;2023-06-22T04:25:07;10.48;;;4.82;;
47153;SDS011;32907;41.412;2.164;2023-06-22T04:27:36;11.35;;;4.85;;
47153;SDS011;32907;41.412;2.164;2023-06-22T04:30:07;9.52;;;4.20;;
47153;SDS011;32907;41.412;2.164;2023-06-22T04:32:36;7.40;;;3.92;;
47153;SDS011;32907;41.412;2.164;2023-06-22T04:35:04;8.32;;;3.50;;
47153;SDS011;32907;41.412;2.164;2023-06-22T04:37:34;8.77;;;3.78;;
47153;SDS011;32907;41.412;2.164;2023-06-22T04:40:02;9.23;;;3.88;;
47153;SDS011;32907;41.412;2.164;2023-06-22T04:42:34;7.95;;;3.90;;
47153;SDS011;32907;41.412;2.164;2023-06-22T04:45:05;8.02;;;4.10;;
47153;SDS011;32907;41.412;2.164;2023-06-22T04:47:38;9.70;;;3.25;;
47153;SDS011;32907;41.412;2.164;2023-06-22T04:50:07;7.03;;;3.17;;
47153;SDS011;32907;41.412;2.164;2023-06-22T04:52:35;5.07;;;2.88;;
47153;SDS011;32907;41.412;2.164;2023-06-22T04:55:04;6.60;;;3.60;;
47153;SDS011;32907;41.412;2.164;2023-06-22T04:57:33;7.20;;;3.90;;
47153;SDS011;32907;41.412;2.164;2023-06-22T05:00:02;6.63;;;4.07;;
47153;SDS011;32907;41.412;2.164;2023-06-22T05:02:41;7.00;;;3.03;;
47153;SDS011;32907;41.412;2.164;2023-06-22T05:05:10;5.57;;;3.08;;
47153;SDS011;32907;41.412;2.164;2023-06-22T05:07:42;8.20;;;2.78;;
47153;SDS011;32907;41.412;2.164;2023-06-22T05:10:11;5.78;;;2.80;;
47153;SDS011;32907;41.412;2.164;2023-06-22T05:12:42;7.18;;;2.88;;
47153;SDS011;32907;41.412;2.164;2023-06-22T05:15:11;4.97;;;2.28;;
47153;SDS011;32907;41.412;2.164;2023-06-22T05:17:42;5.30;;;3.28;;
47153;SDS011;32907;41.412;2.164;2023-06-22T05:20:13;10.70;;;6.93;;
47153;SDS011;32907;41.412;2.164;2023-06-22T05:22:41;13.85;;;7.97;;
47153;SDS011;32907;41.412;2.164;2023-06-22T05:25:12;15.38;;;8.30;;
47153;SDS011;32907;41.412;2.164;2023-06-22T05:27:41;18.73;;;10.20;;
47153;SDS011;32907;41.412;2.164;2023-06-22T05:30:09;15.98;;;7.50;;
47153;SDS011;32907;41.412;2.164;2023-06-22T05:32:38;14.55;;;7.72;;
47153;SDS011;32907;41.412;2.164;2023-06-22T05:35:06;15.00;;;7.47;;
47153;SDS011;32907;41.412;2.164;2023-06-22T05:37:41;9.30;;;5.70;;
47153;SDS011;32907;41.412;2.164;2023-06-22T05:40:15;14.98;;;7.85;;
47153;SDS011;32907;41.412;2.164;2023-06-22T05:42:43;18.10;;;10.80;;
47153;SDS011;32907;41.412;2.164;2023-06-22T05:45:12;26.00;;;14.48;;
47153;SDS011;32907;41.412;2.164;2023-06-22T05:47:41;16.13;;;9.27;;
47153;SDS011;32907;41.412;2.164;2023-06-22T05:50:09;14.18;;;7.90;;
47153;SDS011;32907;41.412;2.164;2023-06-22T05:52:39;15.23;;;7.13;;
47153;SDS011;32907;41.412;2.164;2023-06-22T05:55:10;7.93;;;4.30;;
47153;SDS011;32907;41.412;2.164;2023-06-22T05:57:39;7.28;;;4.03;;
47153;SDS011;32907;41.412;2.164;2023-06-22T06:00:07;7.78;;;3.28;;
47153;SDS011;32907;41.412;2.164;2023-06-22T06:02:38;6.53;;;3.20;;
47153;SDS011;32907;41.412;2.164;2023-06-22T06:05:11;5.78;;;2.88;;
47153;SDS011;32907;41.412;2.164;2023-06-22T06:07:45;7.05;;;3.58;;
47153;SDS011;32907;41.412;2.164;2023-06-22T06:10:13;9.20;;;3.00;;
47153;SDS011;32907;41.412;2.164;2023-06-22T06:12:41;5.97;;;3.28;;
47153;SDS011;32907;41.412;2.164;2023-06-22T06:15:09;8.35;;;3.05;;
47153;SDS011;32907;41.412;2.164;2023-06-22T06:17:51;6.70;;;3.00;;
47153;SDS011;32907;41.412;2.164;2023-06-22T06:20:22;9.02;;;3.65;;
47153;SDS011;32907;41.412;2.164;2023-06-22T06:22:54;8.98;;;3.08;;
47153;SDS011;32907;41.412;2.164;2023-06-22T06:25:24;6.25;;;2.50;;
47153;SDS011;32907;41.412;2.164;2023-06-22T06:27:53;8.00;;;3.13;;
47153;SDS011;32907;41.412;2.164;2023-06-22T06:30:23;6.85;;;2.60;;
47153;SDS011;32907;41.412;2.164;2023-06-22T06:32:52;7.60;;;2.83;;
47153;SDS011;32907;41.412;2.164;2023-06-22T06:35:20;8.25;;;2.78;;
47153;SDS011;32907;41.412;2.164;2023-06-22T06:37:52;10.30;;;3.03;;
47153;SDS011;32907;41.412;2.164;2023-06-22T06:40:20;8.57;;;3.13;;
47153;SDS011;32907;41.412;2.164;2023-06-22T06:42:48;8.35;;;2.70;;
47153;SDS011;32907;41.412;2.164;2023-06-22T06:45:20;6.68;;;2.90;;
47153;SDS011;32907;41.412;2.164;2023-06-22T06:47:52;10.50;;;3.33;;
47153;SDS011;32907;41.412;2.164;2023-06-22T06:50:21;5.82;;;3.17;;
47153;SDS011;32907;41.412;2.164;2023-06-22T06:52:49;6.90;;;2.75;;
47153;SDS011;32907;41.412;2.164;2023-06-22T06:55:19;10.82;;;3.60;;
47153;SDS011;32907;41.412;2.164;2023-06-22T06:57:48;6.57;;;2.80;;
47153;SDS011;32907;41.412;2.164;2023-06-22T07:00:18;8.07;;;2.67;;
47153;SDS011;32907;41.412;2.164;2023-06-22T07:02:46;10.57;;;2.88;;
47153;SDS011;32907;41.412;2.164;2023-06-22T07:05:16;9.13;;;2.53;;
47153;SDS011;32907;41.412;2.164;2023-06-22T07:07:44;5.93;;;3.00;;
47153;SDS011;32907;41.412;2.164;2023-06-22T07:10:12;7.32;;;2.95;;
47153;SDS011;32907;41.412;2.164;2023-06-22T07:12:40;6.28;;;3.30;;
47153;SDS011;32907;41.412;2.164;2023-06-22T07:15:10;7.18;;;2.80;;
47153;SDS011;32907;41.412;2.164;2023-06-22T07:17:40;9.18;;;3.05;;
47153;SDS011;32907;41.412;2.164;2023-06-22T07:20:09;7.93;;;3.70;;
47153;SDS011;32907;41.412;2.164;2023-06-22T07:22:43;7.88;;;3.42;;
47153;SDS011;32907;41.412;2.164;2023-06-22T07:25:15;5.05;;;2.90;;
47153;SDS011;32907;41.412;2.164;2023-06-22T07:28:06;7.03;;;2.58;;
47153;SDS011;32907;41.412;2.164;2023-06-22T07:30:34;10.40;;;4.90;;
47153;SDS011;32907;41.412;2.164;2023-06-22T07:33:02;10.85;;;4.75;;
47153;SDS011;32907;41.412;2.164;2023-06-22T07:35:32;10.40;;;5.50;;
47153;SDS011;32907;41.412;2.164;2023-06-22T07:38:00;6.57;;;3.80;;
47153;SDS011;32907;41.412;2.164;2023-06-22T07:40:32;8.32;;;4.18;;
47153;SDS011;32907;41.412;2.164;2023-06-22T07:43:02;8.15;;;4.00;;
47153;SDS011;32907;41.412;2.164;2023-06-22T07:45:30;6.82;;;3.20;;
47153;SDS011;32907;41.412;2.164;2023-06-22T07:48:01;5.38;;;2.50;;
47153;SDS011;32907;41.412;2.164;2023-06-22T07:50:29;5.70;;;2.70;;
47153;SDS011;32907;41.412;2.164;2023-06-22T07:52:59;5.28;;;2.40;;
47153;SDS011;32907;41.412;2.164;2023-06-22T07:55:28;7.75;;;3.70;;
47153;SDS011;32907;41.412;2.164;2023-06-22T07:57:59;6.57;;;3.50;;
47153;SDS011;32907;41.412;2.164;2023-06-22T08:00:27;8.85;;;3.35;;
47153;SDS011;32907;41.412;2.164;2023-06-22T08:02:55;5.82;;;3.03;;
47153;SDS011;32907;41.412;2.164;2023-06-22T08:05:24;6.00;;;2.75;;
47153;SDS011;32907;41.412;2.164;2023-06-22T08:07:51;6.15;;;2.40;;
47153;SDS011;32907;41.412;2.164;2023-06-22T08:10:23;4.32;;;2.58;;
47153;SDS011;32907;41.412;2.164;2023-06-22T08:12:52;3.55;;;2.60;;
47153;SDS011;32907;41.412;2.164;2023-06-22T08:15:22;4.68;;;2.47;;
47153;SDS011;32907;41.412;2.164;2023-06-22T08:17:50;6.97;;;2.88;;
47153;SDS011;32907;41.412;2.164;2023-06-22T08:20:20;6.20;;;2.72;;
47153;SDS011;32907;41.412;2.164;2023-06-22T08:22:48;6.28;;;3.10;;
47153;SDS011;32907;41.412;2.164;2023-06-22T08:25:17;5.28;;;2.88;;
47153;SDS011;32907;41.412;2.164;2023-06-22T08:27:45;7.45;;;3.03;;
47153;SDS011;32907;41.412;2.164;2023-06-22T08:30:18;5.55;;;2.92;;
47153;SDS011;32907;41.412;2.164;2023-06-22T08:32:47;5.68;;;3.00;;
47153;SDS011;32907;41.412;2.164;2023-06-22T08:35:16;7.25;;;3.20;;
47153;SDS011;32907;41.412;2.164;2023-06-22T08:37:45;6.38;;;2.85;;
47153;SDS011;32907;41.412;2.164;2023-06-22T08:40:20;5.80;;;2.78;;
47153;SDS011;32907;41.412;2.164;2023-06-22T08:42:48;6.72;;;2.90;;
47153;SDS011;32907;41.412;2.164;2023-06-22T08:45:17;7.25;;;3.47;;
47153;SDS011;32907;41.412;2.164;2023-06-22T08:47:45;5.53;;;2.75;;
47153;SDS011;32907;41.412;2.164;2023-06-22T08:50:13;5.90;;;3.00;;
47153;SDS011;32907;41.412;2.164;2023-06-22T08:52:42;3.97;;;2.83;;
47153;SDS011;32907;41.412;2.164;2023-06-22T08:55:09;5.30;;;2.58;;
47153;SDS011;32907;41.412;2.164;2023-06-22T08:57:38;5.90;;;2.60;;
47153;SDS011;32907;41.412;2.164;2023-06-22T09:00:07;8.35;;;2.92;;
47153;SDS011;32907;41.412;2.164;2023-06-22T09:02:47;7.78;;;2.85;;
47153;SDS011;32907;41.412;2.164;2023-06-22T09:05:16;5.05;;;2.90;;
47153;SDS011;32907;41.412;2.164;2023-06-22T09:07:44;3.55;;;2.50;;
47153;SDS011;32907;41.412;2.164;2023-06-22T09:10:13;5.45;;;3.10;;
47153;SDS011;32907;41.412;2.164;2023-06-22T09:12:41;8.15;;;3.20;;
47153;SDS011;32907;41.412;2.164;2023-06-22T09:15:09;5.65;;;2.72;;
47153;SDS011;32907;41.412;2.164;2023-06-22T09:17:54;7.28;;;3.20;;
47153;SDS011;32907;41.412;2.164;2023-06-22T09:20:22;6.80;;;3.30;;
47153;SDS011;32907;41.412;2.164;2023-06-22T09:22:50;6.82;;;3.03;;
47153;SDS011;32907;41.412;2.164;2023-06-22T09:25:21;7.55;;;3.03;;
47153;SDS011;32907;41.412;2.164;2023-06-22T09:27:53;5.20;;;3.13;;
47153;SDS011;32907;41.412;2.164;2023-06-22T09:30:21;5.28;;;3.17;;
47153;SDS011;32907;41.412;2.164;2023-06-22T09:32:49;8.93;;;3.08;;
47153;SDS011;32907;41.412;2.164;2023-06-22T09:35:17;6.85;;;3.17;;
47153;SDS011;32907;41.412;2.164;2023-06-22T09:37:45;6.55;;;3.92;;
47153;SDS011;32907;41.412;2.164;2023-06-22T09:40:14;14.77;;;5.10;;
47153;SDS011;32907;41.412;2.164;2023-06-22T09:42:44;13.68;;;4.97;;
47153;SDS011;32907;41.412;2.164;2023-06-22T09:45:13;15.80;;;4.88;;
47153;SDS011;32907;41.412;2.164;2023-06-22T09:47:41;9.38;;;4.03;;
47153;SDS011;32907;41.412;2.164;2023-06-22T09:50:10;10.55;;;4.03;;
47153;SDS011;32907;41.412;2.164;2023-06-22T09:52:38;13.48;;;3.90;;
47153;SDS011;32907;41.412;2.164;2023-06-22T09:55:08;7.85;;;3.78;;
47153;SDS011;32907;41.412;2.164;2023-06-22T09:57:37;8.00;;;3.55;;
47153;SDS011;32907;41.412;2.164;2023-06-22T10:00:05;8.23;;;4.00;;
47153;SDS011;32907;41.412;2.164;2023-06-22T10:02:37;7.13;;;3.08;;
47153;SDS011;32907;41.412;2.164;2023-06-22T10:05:06;6.03;;;2.80;;
47153;SDS011;32907;41.412;2.164;2023-06-22T10:07:35;5.38;;;2.55;;
47153;SDS011;32907;41.412;2.164;2023-06-22T10:10:13;6.55;;;2.83;;
47153;SDS011;32907;41.412;2.164;2023-06-22T10:12:42;6.07;;;2.50;;
47153;SDS011;32907;41.412;2.164;2023-06-22T10:15:13;5.60;;;2.90;;
47153;SDS011;32907;41.412;2.164;2023-06-22T10:17:43;12.27;;;2.95;;
47153;SDS011;32907;41.412;2.164;2023-06-22T10:20:13;7.45;;;3.30;;
47153;SDS011;32907;41.412;2.164;2023-06-22T10:22:42;4.65;;;2.65;;
47153;SDS011;32907;41.412;2.164;2023-06-22T10:25:11;5.78;;;2.67;;
47153;SDS011;32907;41.412;2.164;2023-06-22T10:27:40;5.97;;;2.75;;
47153;SDS011;32907;41.412;2.164;2023-06-22T10:30:09;3.15;;;2.40;;
47153;SDS011;32907;41.412;2.164;2023-06-22T10:32:42;8.65;;;3.08;;
47153;SDS011;32907;41.412;2.164;2023-06-22T10:35:11;5.20;;;2.40;;
47153;SDS011;32907;41.412;2.164;2023-06-22T10:37:44;7.55;;;2.78;;
47153;SDS011;32907;41.412;2.164;2023-06-22T10:40:13;6.45;;;2.55;;
47153;SDS011;32907;41.412;2.164;2023-06-22T10:42:44;7.13;;;2.80;;
47153;SDS011;32907;41.412;2.164;2023-06-22T10:45:12;9.65;;;2.97;;
47153;SDS011;32907;41.412;2.164;2023-06-22T10:47:40;9.50;;;2.60;;
47153;SDS011;32907;41.412;2.164;2023-06-22T10:50:10;12.95;;;6.28;;
47153;SDS011;32907;41.412;2.164;2023-06-22T10:52:38;12.70;;;7.32;;
47153;SDS011;32907;41.412;2.164;2023-06-22T10:55:06;14.00;;;6.13;;
47153;SDS011;32907;41.412;2.164;2023-06-22T10:57:35;11.38;;;5.78;;
47153;SDS011;32907;41.412;2.164;2023-06-22T11:00:05;7.57;;;4.60;;
47153;SDS011;32907;41.412;2.164;2023-06-22T11:02:33;8.13;;;3.50;;
47153;SDS011;32907;41.412;2.164;2023-06-22T11:05:01;9.15;;;3.53;;
47153;SDS011;32907;41.412;2.164;2023-06-22T11:07:33;8.20;;;3.97;;
47153;SDS011;32907;41.412;2.164;2023-06-22T11:10:01;8.48;;;3.92;;
47153;SDS011;32907;41.412;2.164;2023-06-22T11:12:30;10.27;;;4.57;;
47153;SDS011;32907;41.412;2.164;2023-06-22T11:14:58;25.33;;;9.52;;
47153;SDS011;32907;41.412;2.164;2023-06-22T11:17:27;29.00;;;11.00;;
47153;SDS011;32907;41.412;2.164;2023-06-22T11:19:55;26.00;;;8.88;;
47153;SDS011;32907;41.412;2.164;2023-06-22T11:22:27;16.50;;;6.75;;
47153;SDS011;32907;41.412;2.164;2023-06-22T11:24:59;12.45;;;4.90;;
47153;SDS011;32907;41.412;2.164;2023-06-22T11:27:27;13.25;;;4.35;;
47153;SDS011;32907;41.412;2.164;2023-06-22T11:29:55;6.45;;;3.58;;
47153;SDS011;32907;41.412;2.164;2023-06-22T11:32:23;8.00;;;2.92;;
47153;SDS011;32907;41.412;2.164;2023-06-22T11:34:51;6.57;;;2.78;;
47153;SDS011;32907;41.412;2.164;2023-06-22T11:37:19;11.40;;;4.90;;
47153;SDS011;32907;41.412;2.164;2023-06-22T11:39:49;10.52;;;5.50;;
47153;SDS011;32907;41.412;2.164;2023-06-22T11:42:31;28.60;;;24.05;;
47153;SDS011;32907;41.412;2.164;2023-06-22T11:45:00;24.52;;;20.58;;
47153;SDS011;32907;41.412;2.164;2023-06-22T11:47:28;20.27;;;12.63;;
47153;SDS011;32907;41.412;2.164;2023-06-22T11:49:57;20.30;;;12.75;;
47153;SDS011;32907;41.412;2.164;2023-06-22T11:52:25;16.70;;;8.70;;
47153;SDS011;32907;41.412;2.164;2023-06-22T11:54:54;13.00;;;8.60;;
47153;SDS011;32907;41.412;2.164;2023-06-22T11:57:22;12.25;;;7.60;;
47153;SDS011;32907;41.412;2.164;2023-06-22T11:59:51;12.13;;;5.93;;
47153;SDS011;32907;41.412;2.164;2023-06-22T12:02:18;12.18;;;6.20;;
47153;SDS011;32907;41.412;2.164;2023-06-22T12:04:48;7.95;;;5.15;;
47153;SDS011;32907;41.412;2.164;2023-06-22T12:07:16;7.43;;;5.32;;
47153;SDS011;32907;41.412;2.164;2023-06-22T12:09:44;12.40;;;5.50;;
47153;SDS011;32907;41.412;2.164;2023-06-22T12:12:12;6.00;;;4.03;;
47153;SDS011;32907;41.412;2.164;2023-06-22T12:14:40;3.88;;;2.90;;
47153;SDS011;32907;41.412;2.164;2023-06-22T12:17:07;4.85;;;3.42;;
47153;SDS011;32907;41.412;2.164;2023-06-22T12:19:35;8.95;;;3.70;;
47153;SDS011;32907;41.412;2.164;2023-06-22T12:22:06;9.77;;;4.22;;
47153;SDS011;32907;41.412;2.164;2023-06-22T12:24:34;21.75;;;10.80;;
47153;SDS011;32907;41.412;2.164;2023-06-22T12:27:02;32.35;;;19.38;;
47153;SDS011;32907;41.412;2.164;2023-06-22T12:29:31;46.25;;;27.85;;
47153;SDS011;32907;41.412;2.164;2023-06-22T12:31:59;34.25;;;21.63;;
47153;SDS011;32907;41.412;2.164;2023-06-22T12:34:27;17.98;;;11.40;;
47153;SDS011;32907;41.412;2.164;2023-06-22T12:36:55;14.07;;;9.02;;
47153;SDS011;32907;41.412;2.164;2023-06-22T12:39:23;12.63;;;7.47;;
47153;SDS011;32907;41.412;2.164;2023-06-22T12:41:51;10.55;;;6.20;;
47153;SDS011;32907;41.412;2.164;2023-06-22T12:44:19;12.07;;;5.90;;
47153;SDS011;32907;41.412;2.164;2023-06-22T12:46:48;9.52;;;6.13;;
47153;SDS011;32907;41.412;2.164;2023-06-22T12:49:16;8.90;;;5.07;;
47153;SDS011;32907;41.412;2.164;2023-06-22T12:51:44;6.75;;;4.40;;
47153;SDS011;32907;41.412;2.164;2023-06-22T12:54:13;6.10;;;3.20;;
47153;SDS011;32907;41.412;2.164;2023-06-22T12:56:41;6.70;;;2.67;;
47153;SDS011;32907;41.412;2.164;2023-06-22T12:59:11;6.03;;;2.38;;
47153;SDS011;32907;41.412;2.164;2023-06-22T13:01:50;5.25;;;2.58;;
47153;SDS011;32907;41.412;2.164;2023-06-22T13:04:18;3.25;;;1.90;;
47153;SDS011;32907;41.412;2.164;2023-06-22T13:06:47;6.45;;;2.85;;
47153;SDS011;32907;41.412;2.164;2023-06-22T13:09:18;7.68;;;2.92;;
47153;SDS011;32907;41.412;2.164;2023-06-22T13:11:48;10.75;;;3.00;;
47153;SDS011;32907;41.412;2.164;2023-06-22T13:14:16;3.58;;;2.33;;
47153;SDS011;32907;41.412;2.164;2023-06-22T13:16:43;6.07;;;2.50;;
47153;SDS011;32907;41.412;2.164;2023-06-22T13:19:12;3.95;;;2.40;;
47153;SDS011;32907;41.412;2.164;2023-06-22T13:21:41;4.40;;;2.33;;
47153;SDS011;32907;41.412;2.164;2023-06-22T13:24:09;5.30;;;1.92;;
47153;SDS011;32907;41.412;2.164;2023-06-22T13:26:37;4.70;;;2.00;;
47153;SDS011;32907;41.412;2.164;2023-06-22T13:29:06;4.03;;;1.70;;
47153;SDS011;32907;41.412;2.164;2023-06-22T13:31:34;5.32;;;2.28;;
47153;SDS011;32907;41.412;2.164;2023-06-22T13:34:02;5.47;;;3.90;;
47153;SDS011;32907;41.412;2.164;2023-06-22T13:36:31;14.18;;;6.97;;
47153;SDS011;32907;41.412;2.164;2023-06-22T13:38:59;10.25;;;6.53;;
47153;SDS011;32907;41.412;2.164;2023-06-22T13:41:27;7.70;;;4.95;;
47153;SDS011;32907;41.412;2.164;2023-06-22T13:43:55;10.15;;;6.28;;
47153;SDS011;32907;41.412;2.164;2023-06-22T13:46:23;10.27;;;5.18;;
47153;SDS011;32907;41.412;2.164;2023-06-22T13:48:51;8.75;;;5.20;;
47153;SDS011;32907;41.412;2.164;2023-06-22T13:51:22;15.68;;;6.70;;
47153;SDS011;32907;41.412;2.164;2023-06-22T13:53:51;8.23;;;4.13;;
47153;SDS011;32907;41.412;2.164;2023-06-22T13:56:18;10.25;;;3.22;;
47153;SDS011;32907;41.412;2.164;2023-06-22T13:58:46;7.72;;;3.22;;
47153;SDS011;32907;41.412;2.164;2023-06-22T14:01:14;6.95;;;2.90;;
47153;SDS011;32907;41.412;2.164;2023-06-22T14:03:44;8.15;;;2.72;;
47153;SDS011;32907;41.412;2.164;2023-06-22T14:06:14;5.15;;;2.50;;
47153;SDS011;32907;41.412;2.164;2023-06-22T14:08:42;6.47;;;2.60;;
47153;SDS011;32907;41.412;2.164;2023-06-22T14:11:10;5.88;;;2.72;;
47153;SDS011;32907;41.412;2.164;2023-06-22T14:13:38;3.72;;;2.35;;
47153;SDS011;32907;41.412;2.164;2023-06-22T14:16:06;4.78;;;2.40;;
47153;SDS011;32907;41.412;2.164;2023-06-22T14:18:34;4.95;;;2.50;;
47153;SDS011;32907;41.412;2.164;2023-06-22T14:21:02;6.63;;;3.13;;
47153;SDS011;32907;41.412;2.164;2023-06-22T14:23:30;5.60;;;2.67;;
47153;SDS011;32907;41.412;2.164;2023-06-22T14:25:59;5.07;;;3.05;;
47153;SDS011;32907;41.412;2.164;2023-06-22T14:28:28;6.72;;;2.45;;
47153;SDS011;32907;41.412;2.164;2023-06-22T14:30:56;8.00;;;2.40;;
47153;SDS011;32907;41.412;2.164;2023-06-22T14:33:25;3.80;;;2.80;;
47153;SDS011;32907;41.412;2.164;2023-06-22T14:35:53;8.05;;;2.30;;
47153;SDS011;32907;41.412;2.164;2023-06-22T14:38:21;4.53;;;2.03;;
47153;SDS011;32907;41.412;2.164;2023-06-22T14:40:49;6.20;;;2.45;;
47153;SDS011;32907;41.412;2.164;2023-06-22T14:43:45;4.47;;;2.30;;
47153;SDS011;32907;41.412;2.164;2023-06-22T14:46:15;4.95;;;2.30;;
47153;SDS011;32907;41.412;2.164;2023-06-22T14:48:45;5.50;;;2.25;;
47153;SDS011;32907;41.412;2.164;2023-06-22T14:51:13;6.28;;;2.30;;
47153;SDS011;32907;41.412;2.164;2023-06-22T14:53:45;4.57;;;2.38;;
47153;SDS011;32907;41.412;2.164;2023-06-22T14:56:13;5.97;;;2.28;;
47153;SDS011;32907;41.412;2.164;2023-06-22T14:58:43;4.45;;;2.10;;
47153;SDS011;32907;41.412;2.164;2023-06-22T15:01:16;4.90;;;2.17;;
47153;SDS011;32907;41.412;2.164;2023-06-22T15:03:46;4.57;;;2.20;;
47153;SDS011;32907;41.412;2.164;2023-06-22T15:06:14;7.20;;;2.05;;
47153;SDS011;32907;41.412;2.164;2023-06-22T15:08:43;5.57;;;2.20;;
47153;SDS011;32907;41.412;2.164;2023-06-22T15:11:11;4.97;;;2.42;;